createdAt,value
2019-04-29T00:00:57.101Z,881.00
2019-04-29T00:01:56.931Z,880.00
2019-04-29T00:02:57.592Z,881.00
2019-04-29T00:03:58.393Z,885.00
2019-04-29T00:05:00.424Z,885.00
2019-04-29T00:06:01.315Z,885.00
2019-04-29T00:07:02.425Z,886.00
2019-04-29T00:08:01.890Z,885.00
2019-04-29T00:09:03.423Z,885.00
2019-04-29T00:10:03.918Z,876.00
2019-04-29T00:11:03.948Z,878.00
2019-04-29T00:12:04.506Z,877.00
2019-04-29T00:13:05.519Z,885.00
2019-04-29T00:14:06.330Z,888.00
2019-04-29T00:15:07.306Z,886.00
2019-04-29T00:16:06.356Z,886.00
2019-04-29T00:17:07.134Z,886.00
2019-04-29T00:18:08.130Z,889.00
2019-04-29T00:19:08.329Z,888.00
2019-04-29T00:20:08.467Z,886.00
2019-04-29T00:21:09.274Z,888.00
2019-04-29T00:22:10.031Z,885.00
2019-04-29T00:23:11.802Z,886.00
2019-04-29T00:24:12.028Z,886.00
2019-04-29T00:25:12.503Z,885.00
2019-04-29T00:26:13.068Z,885.00
2019-04-29T00:27:13.720Z,884.00
2019-04-29T00:28:13.552Z,884.00
2019-04-29T00:29:14.880Z,885.00
2019-04-29T00:30:14.745Z,883.00
2019-04-29T00:31:14.959Z,882.00
2019-04-29T00:32:15.840Z,881.00
2019-04-29T00:33:17.211Z,864.00
2019-04-29T00:33:26.323Z,873.00
2019-04-29T00:34:27.675Z,873.00
2019-04-29T00:35:28.658Z,881.00
2019-04-29T00:36:29.279Z,881.00
2019-04-29T00:37:30.064Z,881.00
2019-04-29T00:38:30.197Z,882.00
2019-04-29T00:39:30.573Z,885.00
2019-04-29T00:40:31.155Z,888.00
2019-04-29T00:41:31.857Z,889.00
2019-04-29T00:42:32.558Z,888.00
2019-04-29T00:43:33.078Z,889.00
2019-04-29T00:44:33.607Z,889.00
2019-04-29T00:45:34.294Z,888.00
2019-04-29T00:46:35.070Z,888.00
2019-04-29T00:47:35.571Z,886.00
2019-04-29T00:48:35.690Z,886.00
2019-04-29T00:49:36.234Z,885.00
2019-04-29T00:50:36.037Z,885.00
2019-04-29T00:51:36.682Z,884.00
2019-04-29T00:52:38.205Z,888.00
2019-04-29T00:53:38.722Z,886.00
2019-04-29T00:54:39.237Z,888.00
2019-04-29T00:55:39.742Z,888.00
2019-04-29T00:56:40.321Z,888.00
2019-04-29T00:57:40.857Z,888.00
2019-04-29T00:58:41.494Z,889.00
2019-04-29T00:59:41.955Z,888.00
2019-04-29T01:00:42.636Z,888.00
2019-04-29T01:01:43.340Z,886.00
2019-04-29T01:02:42.928Z,886.00
2019-04-29T01:03:44.034Z,885.00
2019-04-29T01:04:44.116Z,874.00
2019-04-29T01:05:44.511Z,885.00
2019-04-29T01:06:45.302Z,883.00
2019-04-29T01:07:46.292Z,882.00
2019-04-29T01:08:46.467Z,881.00
2019-04-29T01:09:47.418Z,882.00
2019-04-29T01:10:48.381Z,880.00
2019-04-29T01:11:48.851Z,880.00
2019-04-29T01:12:49.612Z,881.00
2019-04-29T01:13:50.222Z,882.00
2019-04-29T01:14:50.753Z,881.00
2019-04-29T01:15:51.384Z,880.00
2019-04-29T01:16:51.863Z,880.00
2019-04-29T01:17:52.358Z,880.00
2019-04-29T01:18:53.035Z,880.00
2019-04-29T01:19:03.917Z,872.00
2019-04-29T01:20:01.613Z,880.00
2019-04-29T01:21:03.189Z,879.00
2019-04-29T01:22:03.867Z,879.00
2019-04-29T01:23:04.506Z,879.00
2019-04-29T01:24:05.326Z,879.00
2019-04-29T01:25:05.952Z,879.00
2019-04-29T01:26:06.532Z,879.00
2019-04-29T01:27:07.327Z,879.00
2019-04-29T01:28:07.839Z,879.00
2019-04-29T01:29:08.405Z,880.00
2019-04-29T01:30:08.902Z,879.00
2019-04-29T01:31:09.416Z,879.00
2019-04-29T01:32:09.061Z,879.00
2019-04-29T01:33:10.572Z,880.00
2019-04-29T01:34:11.095Z,880.00
2019-04-29T01:35:11.718Z,881.00
2019-04-29T01:36:12.292Z,880.00
2019-04-29T01:37:12.821Z,880.00
2019-04-29T01:38:13.454Z,880.00
2019-04-29T01:39:13.002Z,880.00
2019-04-29T01:40:14.663Z,879.00
2019-04-29T01:41:15.143Z,879.00
2019-04-29T01:42:15.639Z,879.00
2019-04-29T01:43:16.173Z,879.00
2019-04-29T01:44:16.692Z,881.00
2019-04-29T01:45:17.252Z,880.00
2019-04-29T01:46:17.444Z,881.00
2019-04-29T01:47:17.980Z,883.00
2019-04-29T01:48:18.563Z,881.00
2019-04-29T01:49:18.229Z,883.00
2019-04-29T01:50:19.749Z,883.00
2019-04-29T01:51:20.683Z,882.00
2019-04-29T01:52:21.423Z,886.00
2019-04-29T01:53:21.903Z,885.00
2019-04-29T01:54:22.633Z,877.00
2019-04-29T01:55:23.261Z,885.00
2019-04-29T01:56:22.871Z,874.00
2019-04-29T01:57:24.507Z,886.00
2019-04-29T01:58:25.263Z,876.00
2019-04-29T01:59:25.772Z,861.00
2019-04-29T02:00:26.744Z,874.00
2019-04-29T02:01:27.339Z,873.00
2019-04-29T02:02:27.953Z,873.00
2019-04-29T02:03:28.668Z,883.00
2019-04-29T02:04:28.217Z,885.00
2019-04-29T02:05:29.748Z,884.00
2019-04-29T02:06:30.297Z,884.00
2019-04-29T02:07:30.788Z,884.00
2019-04-29T02:07:39.329Z,883.00
2019-04-29T02:08:40.875Z,881.00
2019-04-29T02:09:41.377Z,882.00
2019-04-29T02:10:42.200Z,874.00
2019-04-29T02:11:42.761Z,874.00
2019-04-29T02:12:42.822Z,874.00
2019-04-29T02:13:43.289Z,881.00
2019-04-29T02:14:44.048Z,883.00
2019-04-29T02:15:44.160Z,883.00
2019-04-29T02:16:44.678Z,883.00
2019-04-29T02:17:45.277Z,885.00
2019-04-29T02:18:44.810Z,884.00
2019-04-29T02:19:47.382Z,885.00
2019-04-29T02:20:46.831Z,877.00
2019-04-29T02:21:47.368Z,876.00
2019-04-29T02:22:47.898Z,884.00
2019-04-29T02:23:48.517Z,885.00
2019-04-29T02:24:49.154Z,886.00
2019-04-29T02:25:49.821Z,885.00
2019-04-29T02:26:50.388Z,886.00
2019-04-29T02:27:50.977Z,886.00
2019-04-29T02:28:51.607Z,885.00
2019-04-29T02:29:52.506Z,888.00
2019-04-29T02:30:53.108Z,878.00
2019-04-29T02:31:52.824Z,878.00
2019-04-29T02:32:54.509Z,885.00
2019-04-29T02:33:55.490Z,879.00
2019-04-29T02:34:56.474Z,879.00
2019-04-29T02:35:56.901Z,879.00
2019-04-29T02:36:57.424Z,879.00
2019-04-29T02:37:57.967Z,881.00
2019-04-29T02:38:57.600Z,880.00
2019-04-29T02:39:59.348Z,879.00
2019-04-29T02:41:00.141Z,879.00
2019-04-29T02:42:00.626Z,890.00
2019-04-29T02:43:01.189Z,880.00
2019-04-29T02:44:02.103Z,880.00
2019-04-29T02:45:03.223Z,880.00
2019-04-29T02:46:02.563Z,880.00
2019-04-29T02:47:03.496Z,880.00
2019-04-29T02:48:04.123Z,869.00
2019-04-29T02:49:06.096Z,880.00
2019-04-29T02:50:06.845Z,888.00
2019-04-29T02:51:07.486Z,886.00
2019-04-29T02:52:08.018Z,885.00
2019-04-29T02:53:08.053Z,885.00
2019-04-29T02:54:08.565Z,888.00
2019-04-29T02:55:09.241Z,889.00
2019-04-29T02:56:09.813Z,890.00
2019-04-29T02:57:10.445Z,895.00
2019-04-29T02:57:18.971Z,895.00
2019-04-29T02:58:19.455Z,895.00
2019-04-29T02:59:21.247Z,893.00
2019-04-29T03:00:21.868Z,893.00
2019-04-29T03:01:22.433Z,890.00
2019-04-29T03:02:22.906Z,889.00
2019-04-29T03:03:23.710Z,892.00
2019-04-29T03:04:24.269Z,893.00
2019-04-29T03:05:24.824Z,890.00
2019-04-29T03:06:25.481Z,890.00
2019-04-29T03:07:25.984Z,890.00
2019-04-29T03:08:26.513Z,894.00
2019-04-29T03:09:26.993Z,894.00
2019-04-29T03:10:27.613Z,893.00
2019-04-29T03:11:28.066Z,890.00
2019-04-29T03:12:28.589Z,889.00
2019-04-29T03:13:29.346Z,890.00
2019-04-29T03:14:29.907Z,891.00
2019-04-29T03:15:31.352Z,883.00
2019-04-29T03:16:31.893Z,890.00
2019-04-29T03:17:31.311Z,890.00
2019-04-29T03:18:32.041Z,888.00
2019-04-29T03:19:33.638Z,888.00
2019-04-29T03:20:32.149Z,888.00
2019-04-29T03:21:33.667Z,885.00
2019-04-29T03:22:33.223Z,886.00
2019-04-29T03:23:34.769Z,888.00
2019-04-29T03:24:35.268Z,888.00
2019-04-29T03:25:35.825Z,889.00
2019-04-29T03:26:36.297Z,889.00
2019-04-29T03:27:36.780Z,888.00
2019-04-29T03:28:37.294Z,888.00
2019-04-29T03:29:37.851Z,889.00
2019-04-29T03:30:38.672Z,888.00
2019-04-29T03:31:40.048Z,886.00
2019-04-29T03:32:39.083Z,878.00
2019-04-29T03:33:39.514Z,879.00
2019-04-29T03:34:41.000Z,888.00
2019-04-29T03:35:41.779Z,886.00
2019-04-29T03:36:42.299Z,886.00
2019-04-29T03:37:42.756Z,865.00
2019-04-29T03:38:42.915Z,885.00
2019-04-29T03:39:43.404Z,884.00
2019-04-29T03:40:43.802Z,885.00
2019-04-29T03:41:45.558Z,888.00
2019-04-29T03:42:45.068Z,888.00
2019-04-29T03:43:45.102Z,888.00
2019-04-29T03:44:45.570Z,886.00
2019-04-29T03:44:54.179Z,886.00
2019-04-29T03:45:55.121Z,885.00
2019-04-29T03:46:56.773Z,885.00
2019-04-29T03:47:57.214Z,884.00
2019-04-29T03:48:57.835Z,884.00
2019-04-29T03:49:58.450Z,884.00
2019-04-29T03:50:58.944Z,884.00
2019-04-29T03:51:59.505Z,884.00
2019-04-29T03:52:59.979Z,883.00
2019-04-29T03:54:00.457Z,883.00
2019-04-29T03:55:00.902Z,884.00
2019-04-29T03:56:00.437Z,884.00
2019-04-29T03:57:01.163Z,886.00
2019-04-29T03:58:02.846Z,886.00
2019-04-29T03:59:03.551Z,885.00
2019-04-29T04:00:04.067Z,885.00
2019-04-29T04:01:05.045Z,884.00
2019-04-29T04:02:05.641Z,883.00
2019-04-29T04:03:06.171Z,884.00
2019-04-29T04:04:05.618Z,886.00
2019-04-29T04:05:07.233Z,885.00
2019-04-29T04:06:08.086Z,885.00
2019-04-29T04:08:08.006Z,885.00
2019-04-29T04:09:09.476Z,876.00
2019-04-29T04:10:09.607Z,884.00
2019-04-29T04:11:10.171Z,877.00
2019-04-29T04:12:10.714Z,877.00
2019-04-29T04:13:11.366Z,877.00
2019-04-29T04:14:11.465Z,885.00
2019-04-29T04:15:12.172Z,884.00
2019-04-29T04:16:12.724Z,885.00
2019-04-29T04:17:13.314Z,885.00
2019-04-29T04:18:12.820Z,884.00
2019-04-29T04:19:13.334Z,885.00
2019-04-29T04:20:14.864Z,885.00
2019-04-29T04:21:15.802Z,889.00
2019-04-29T04:22:16.213Z,888.00
2019-04-29T04:23:17.035Z,886.00
2019-04-29T04:24:16.643Z,886.00
2019-04-29T04:25:18.119Z,885.00
2019-04-29T04:26:18.665Z,886.00
2019-04-29T04:27:19.225Z,886.00
2019-04-29T04:28:19.678Z,885.00
2019-04-29T04:29:20.272Z,888.00
2019-04-29T04:30:20.894Z,885.00
2019-04-29T04:31:20.441Z,885.00
2019-04-29T04:32:21.910Z,885.00
2019-04-29T04:33:22.434Z,885.00
2019-04-29T04:34:22.914Z,884.00
2019-04-29T04:35:23.450Z,876.00
2019-04-29T04:36:23.927Z,885.00
2019-04-29T04:37:24.464Z,884.00
2019-04-29T04:37:32.995Z,884.00
2019-04-29T04:38:34.554Z,883.00
2019-04-29T04:39:35.210Z,885.00
2019-04-29T04:40:35.768Z,883.00
2019-04-29T04:41:35.320Z,884.00
2019-04-29T04:42:36.995Z,884.00
2019-04-29T04:43:37.567Z,883.00
2019-04-29T04:44:38.151Z,883.00
2019-04-29T04:45:38.651Z,883.00
2019-04-29T04:46:38.676Z,884.00
2019-04-29T04:47:38.748Z,885.00
2019-04-29T04:48:39.457Z,884.00
2019-04-29T04:49:39.415Z,885.00
2019-04-29T04:50:40.582Z,884.00
2019-04-29T04:51:40.805Z,883.00
2019-04-29T04:52:41.656Z,883.00
2019-04-29T04:53:42.246Z,883.00
2019-04-29T04:54:46.136Z,882.00
2019-04-29T04:55:43.867Z,882.00
2019-04-29T04:56:44.465Z,881.00
2019-04-29T04:57:45.069Z,881.00
2019-04-29T04:58:45.616Z,883.00
2019-04-29T04:59:46.113Z,883.00
2019-04-29T05:00:46.581Z,881.00
2019-04-29T05:01:47.083Z,876.00
2019-04-29T05:02:47.562Z,883.00
2019-04-29T05:03:48.262Z,883.00
2019-04-29T05:04:48.750Z,884.00
2019-04-29T05:05:49.244Z,884.00
2019-04-29T05:06:49.966Z,884.00
2019-04-29T05:07:50.630Z,886.00
2019-04-29T05:08:51.148Z,880.00
2019-04-29T05:09:51.675Z,888.00
2019-04-29T05:10:52.329Z,888.00
2019-04-29T05:11:52.886Z,888.00
2019-04-29T05:12:53.365Z,886.00
2019-04-29T05:13:53.900Z,885.00
2019-04-29T05:14:54.526Z,886.00
2019-04-29T05:15:53.993Z,890.00
2019-04-29T05:16:55.461Z,888.00
2019-04-29T05:17:56.158Z,876.00
2019-04-29T05:18:56.701Z,890.00
2019-04-29T05:19:57.271Z,881.00
2019-04-29T05:20:57.883Z,888.00
2019-04-29T05:21:58.378Z,886.00
2019-04-29T05:22:06.985Z,888.00
2019-04-29T05:23:08.491Z,888.00
2019-04-29T05:24:09.024Z,890.00
2019-04-29T05:25:09.604Z,890.00
2019-04-29T05:26:10.497Z,889.00
2019-04-29T05:27:10.995Z,888.00
2019-04-29T05:28:11.664Z,888.00
2019-04-29T05:29:12.276Z,889.00
2019-04-29T05:30:12.753Z,888.00
2019-04-29T05:31:13.292Z,888.00
2019-04-29T05:32:14.178Z,886.00
2019-04-29T05:33:14.762Z,885.00
2019-04-29T05:34:15.331Z,885.00
2019-04-29T05:35:16.054Z,886.00
2019-04-29T05:36:17.013Z,885.00
2019-04-29T05:37:17.525Z,884.00
2019-04-29T05:38:17.962Z,884.00
2019-04-29T05:39:18.388Z,884.00
2019-04-29T05:40:18.962Z,886.00
2019-04-29T05:41:19.045Z,885.00
2019-04-29T05:42:19.439Z,884.00
2019-04-29T05:43:20.288Z,885.00
2019-04-29T05:44:20.815Z,884.00
2019-04-29T05:45:21.450Z,883.00
2019-04-29T05:46:23.262Z,884.00
2019-04-29T05:47:21.894Z,884.00
2019-04-29T05:48:27.328Z,884.00
2019-04-29T05:49:23.297Z,884.00
2019-04-29T05:50:24.863Z,885.00
2019-04-29T05:51:27.326Z,885.00
2019-04-29T05:52:25.438Z,879.00
2019-04-29T05:53:27.092Z,880.00
2019-04-29T05:54:31.809Z,885.00
2019-04-29T05:55:27.216Z,888.00
2019-04-29T05:56:29.181Z,888.00
2019-04-29T05:57:29.647Z,886.00
2019-04-29T05:58:33.016Z,885.00
2019-04-29T05:59:29.261Z,884.00
2019-04-29T06:01:12.064Z,883.00
2019-04-29T06:02:13.753Z,885.00
2019-04-29T06:03:14.341Z,885.00
2019-04-29T06:04:16.355Z,884.00
2019-04-29T06:05:14.437Z,878.00
2019-04-29T06:06:15.960Z,884.00
2019-04-29T06:07:16.906Z,885.00
2019-04-29T06:08:16.080Z,885.00
2019-04-29T06:09:18.424Z,884.00
2019-04-29T06:10:18.249Z,885.00
2019-04-29T06:11:18.377Z,878.00
2019-04-29T06:12:20.095Z,878.00
2019-04-29T06:13:20.667Z,877.00
2019-04-29T06:14:22.310Z,884.00
2019-04-29T06:15:21.286Z,882.00
2019-04-29T06:16:22.695Z,884.00
2019-04-29T06:17:22.265Z,884.00
2019-04-29T06:18:23.887Z,885.00
2019-04-29T06:19:23.372Z,884.00
2019-04-29T06:20:24.930Z,884.00
2019-04-29T06:21:25.585Z,886.00
2019-04-29T06:22:26.003Z,885.00
2019-04-29T06:23:26.444Z,885.00
2019-04-29T06:24:27.194Z,884.00
2019-04-29T06:25:28.159Z,883.00
2019-04-29T06:26:28.602Z,884.00
2019-04-29T06:27:29.255Z,885.00
2019-04-29T06:28:29.787Z,884.00
2019-04-29T06:29:30.644Z,883.00
2019-04-29T06:30:31.114Z,883.00
2019-04-29T06:31:31.706Z,884.00
2019-04-29T06:32:31.431Z,881.00
2019-04-29T06:33:33.058Z,882.00
2019-04-29T06:34:35.620Z,884.00
2019-04-29T06:35:33.192Z,883.00
2019-04-29T06:36:35.023Z,882.00
2019-04-29T06:37:34.439Z,881.00
2019-04-29T06:38:36.300Z,881.00
2019-04-29T06:39:36.983Z,880.00
2019-04-29T06:40:37.478Z,881.00
2019-04-29T06:41:40.743Z,880.00
2019-04-29T06:42:37.281Z,879.00
2019-04-29T06:43:38.510Z,879.00
2019-04-29T06:44:39.011Z,878.00
2019-04-29T06:45:39.606Z,879.00
2019-04-29T06:46:40.082Z,879.00
2019-04-29T06:47:40.584Z,879.00
2019-04-29T06:48:41.167Z,878.00
2019-04-29T06:49:41.739Z,880.00
2019-04-29T06:50:42.388Z,879.00
2019-04-29T06:51:43.108Z,879.00
2019-04-29T06:52:44.006Z,879.00
2019-04-29T06:53:47.695Z,878.00
2019-04-29T06:54:44.017Z,878.00
2019-04-29T06:55:45.558Z,878.00
2019-04-29T06:55:54.165Z,870.00
2019-04-29T06:56:54.635Z,877.00
2019-04-29T06:57:56.075Z,876.00
2019-04-29T06:58:56.550Z,868.00
2019-04-29T06:59:57.375Z,868.00
2019-04-29T07:01:01.125Z,868.00
2019-04-29T07:01:57.790Z,877.00
2019-04-29T07:02:59.387Z,868.00
2019-04-29T07:04:00.154Z,876.00
2019-04-29T07:04:59.124Z,876.00
2019-04-29T07:06:00.732Z,868.00
2019-04-29T07:07:01.327Z,868.00
2019-04-29T07:08:01.865Z,869.00
2019-04-29T07:09:02.394Z,869.00
2019-04-29T07:10:02.938Z,876.00
2019-04-29T07:11:03.514Z,876.00
2019-04-29T07:12:03.212Z,868.00
2019-04-29T07:13:04.803Z,869.00
2019-04-29T07:14:05.322Z,871.00
2019-04-29T07:15:07.624Z,870.00
2019-04-29T07:16:04.884Z,867.00
2019-04-29T07:17:07.258Z,878.00
2019-04-29T07:18:06.193Z,868.00
2019-04-29T07:19:07.801Z,876.00
2019-04-29T07:20:08.366Z,876.00
2019-04-29T07:21:11.853Z,874.00
2019-04-29T07:22:08.598Z,876.00
2019-04-29T07:23:10.405Z,876.00
2019-04-29T07:24:11.363Z,874.00
2019-04-29T07:25:11.922Z,874.00
2019-04-29T07:26:12.714Z,873.00
2019-04-29T07:27:13.464Z,876.00
2019-04-29T07:28:13.813Z,873.00
2019-04-29T07:29:13.492Z,873.00
2019-04-29T07:30:14.520Z,873.00
2019-04-29T07:31:14.989Z,872.00
2019-04-29T07:32:15.569Z,871.00
2019-04-29T07:33:22.111Z,873.00
2019-04-29T07:34:15.917Z,874.00
2019-04-29T07:35:17.504Z,874.00
2019-04-29T07:36:18.624Z,873.00
2019-04-29T07:37:17.619Z,873.00
2019-04-29T07:38:19.264Z,871.00
2019-04-29T07:39:19.960Z,865.00
2019-04-29T07:40:20.473Z,864.00
2019-04-29T07:41:21.101Z,862.00
2019-04-29T07:42:25.086Z,869.00
2019-04-29T07:43:21.519Z,869.00
2019-04-29T07:44:23.079Z,870.00
2019-04-29T07:45:28.007Z,873.00
2019-04-29T07:46:23.363Z,876.00
2019-04-29T07:47:24.949Z,873.00
2019-04-29T07:48:25.064Z,872.00
2019-04-29T07:49:26.871Z,871.00
2019-04-29T07:50:28.486Z,871.00
2019-04-29T07:51:26.891Z,873.00
2019-04-29T07:51:39.452Z,871.00
2019-04-29T07:52:37.068Z,870.00
2019-04-29T07:53:45.029Z,869.00
2019-04-29T07:54:37.696Z,869.00
2019-04-29T07:55:39.618Z,869.00
2019-04-29T07:56:42.321Z,869.00
2019-04-29T07:57:39.829Z,868.00
2019-04-29T07:58:41.635Z,868.00
2019-04-29T07:59:42.439Z,867.00
2019-04-29T08:00:44.567Z,867.00
2019-04-29T08:01:42.981Z,867.00
2019-04-29T08:02:44.805Z,867.00
2019-04-29T08:03:45.436Z,867.00
2019-04-29T08:04:45.988Z,866.00
2019-04-29T08:05:46.648Z,867.00
2019-04-29T08:06:47.166Z,868.00
2019-04-29T08:07:47.650Z,867.00
2019-04-29T08:08:55.550Z,866.00
2019-04-29T08:09:47.942Z,867.00
2019-04-29T08:10:55.884Z,866.00
2019-04-29T08:11:49.180Z,856.00
2019-04-29T08:12:50.802Z,858.00
2019-04-29T08:13:50.514Z,865.00
2019-04-29T08:14:53.419Z,865.00
2019-04-29T08:15:51.766Z,865.00
2019-04-29T08:16:53.364Z,865.00
2019-04-29T08:18:05.972Z,865.00
2019-04-29T08:18:54.933Z,864.00
2019-04-29T08:19:54.300Z,861.00
2019-04-29T08:20:55.967Z,861.00
2019-04-29T08:21:57.781Z,861.00
2019-04-29T08:22:58.435Z,861.00
2019-04-29T08:23:56.147Z,860.00
2019-04-29T08:24:57.828Z,860.00
2019-04-29T08:26:02.595Z,860.00
2019-04-29T08:26:57.796Z,860.00
2019-04-29T08:27:59.347Z,859.00
2019-04-29T08:29:00.716Z,859.00
2019-04-29T08:29:59.483Z,859.00
2019-04-29T08:31:00.122Z,860.00
2019-04-29T08:32:02.569Z,859.00
2019-04-29T08:33:01.506Z,858.00
2019-04-29T08:34:03.391Z,857.00
2019-04-29T08:35:03.482Z,857.00
2019-04-29T08:36:04.071Z,856.00
2019-04-29T08:37:04.922Z,855.00
2019-04-29T08:38:05.537Z,853.00
2019-04-29T08:39:08.693Z,853.00
2019-04-29T08:40:15.956Z,852.00
2019-04-29T08:41:05.643Z,850.00
2019-04-29T08:42:09.143Z,850.00
2019-04-29T08:43:07.152Z,849.00
2019-04-29T08:44:16.312Z,849.00
2019-04-29T08:45:08.678Z,848.00
2019-04-29T08:46:10.657Z,849.00
2019-04-29T08:47:10.696Z,849.00
2019-04-29T08:48:11.493Z,848.00
2019-04-29T08:49:14.708Z,848.00
2019-04-29T08:50:11.464Z,849.00
2019-04-29T08:51:12.791Z,847.00
2019-04-29T08:51:21.339Z,847.00
2019-04-29T08:52:22.434Z,847.00
2019-04-29T08:53:23.412Z,847.00
2019-04-29T08:54:24.352Z,841.00
2019-04-29T08:55:26.529Z,845.00
2019-04-29T08:56:24.852Z,845.00
2019-04-29T08:57:25.883Z,845.00
2019-04-29T08:58:26.788Z,843.00
2019-04-29T08:59:27.493Z,843.00
2019-04-29T09:00:27.817Z,843.00
2019-04-29T09:01:29.287Z,842.00
2019-04-29T09:02:35.123Z,842.00
2019-04-29T09:03:39.604Z,842.00
2019-04-29T09:04:33.357Z,842.00
2019-04-29T09:05:29.182Z,842.00
2019-04-29T09:06:32.655Z,842.00
2019-04-29T09:07:30.805Z,842.00
2019-04-29T09:08:32.836Z,843.00
2019-04-29T09:09:31.907Z,843.00
2019-04-29T09:10:36.854Z,842.00
2019-04-29T09:11:32.484Z,842.00
2019-04-29T09:12:33.608Z,842.00
2019-04-29T09:13:34.280Z,842.00
2019-04-29T09:14:35.130Z,843.00
2019-04-29T09:15:35.780Z,846.00
2019-04-29T09:16:36.328Z,846.00
2019-04-29T09:17:38.074Z,846.00
2019-04-29T09:18:37.769Z,846.00
2019-04-29T09:19:39.520Z,846.00
2019-04-29T09:20:37.603Z,846.00
2019-04-29T09:21:39.189Z,846.00
2019-04-29T09:22:40.038Z,846.00
2019-04-29T09:23:40.900Z,845.00
2019-04-29T09:24:43.577Z,845.00
2019-04-29T09:25:40.628Z,845.00
2019-04-29T09:26:42.415Z,841.00
2019-04-29T09:27:45.014Z,842.00
2019-04-29T09:28:42.924Z,846.00
2019-04-29T09:29:46.378Z,848.00
2019-04-29T09:30:44.677Z,848.00
2019-04-29T09:31:46.719Z,847.00
2019-04-29T09:32:45.641Z,847.00
2019-04-29T09:33:49.054Z,848.00
2019-04-29T09:34:46.670Z,847.00
2019-04-29T09:35:48.519Z,843.00
2019-04-29T09:36:49.817Z,843.00
2019-04-29T09:37:48.237Z,843.00
2019-04-29T09:38:50.216Z,843.00
2019-04-29T09:39:50.904Z,845.00
2019-04-29T09:40:54.600Z,848.00
2019-04-29T09:41:51.179Z,848.00
2019-04-29T09:42:52.831Z,847.00
2019-04-29T09:43:53.778Z,847.00
2019-04-29T09:44:54.395Z,846.00
2019-04-29T09:45:58.880Z,845.00
2019-04-29T09:46:54.555Z,845.00
2019-04-29T09:47:56.180Z,848.00
2019-04-29T09:48:57.091Z,847.00
2019-04-29T09:49:57.867Z,847.00
2019-04-29T09:50:06.407Z,846.00
2019-04-29T09:51:17.279Z,846.00
2019-04-29T09:52:07.788Z,845.00
2019-04-29T09:53:07.694Z,844.00
2019-04-29T09:54:13.963Z,845.00
2019-04-29T09:55:08.966Z,845.00
2019-04-29T09:56:10.719Z,847.00
2019-04-29T09:57:11.357Z,847.00
2019-04-29T09:58:11.994Z,847.00
2019-04-29T09:59:12.028Z,846.00
2019-04-29T10:00:12.517Z,845.00
2019-04-29T10:01:13.940Z,846.00
2019-04-29T10:02:12.177Z,847.00
2019-04-29T10:03:13.870Z,847.00
2019-04-29T10:04:14.443Z,847.00
2019-04-29T10:05:14.605Z,847.00
2019-04-29T10:06:15.178Z,849.00
2019-04-29T10:07:14.953Z,849.00
2019-04-29T10:08:16.442Z,849.00
2019-04-29T10:09:17.209Z,855.00
2019-04-29T10:10:17.947Z,855.00
2019-04-29T10:11:18.588Z,849.00
2019-04-29T10:12:19.258Z,847.00
2019-04-29T10:13:19.447Z,845.00
2019-04-29T10:14:20.185Z,848.00
2019-04-29T10:15:20.827Z,849.00
2019-04-29T10:16:21.405Z,847.00
2019-04-29T10:17:21.921Z,847.00
2019-04-29T10:18:25.074Z,852.00
2019-04-29T10:19:22.500Z,855.00
2019-04-29T10:20:24.000Z,852.00
2019-04-29T10:21:24.948Z,848.00
2019-04-29T10:22:25.802Z,846.00
2019-04-29T10:23:26.389Z,845.00
2019-04-29T10:24:27.053Z,844.00
2019-04-29T10:25:27.617Z,842.00
2019-04-29T10:26:28.158Z,843.00
2019-04-29T10:27:28.878Z,843.00
2019-04-29T10:28:29.460Z,842.00
2019-04-29T10:29:29.940Z,842.00
2019-04-29T10:30:31.097Z,843.00
2019-04-29T10:31:29.854Z,842.00
2019-04-29T10:32:31.397Z,842.00
2019-04-29T10:33:32.051Z,842.00
2019-04-29T10:34:33.088Z,841.00
2019-04-29T10:35:32.217Z,842.00
2019-04-29T10:36:33.796Z,842.00
2019-04-29T10:37:34.377Z,842.00
2019-04-29T10:38:34.975Z,847.00
2019-04-29T10:39:35.611Z,848.00
2019-04-29T10:40:35.804Z,848.00
2019-04-29T10:41:36.169Z,847.00
2019-04-29T10:41:43.984Z,846.00
2019-04-29T10:42:45.493Z,846.00
2019-04-29T10:43:49.493Z,845.00
2019-04-29T10:44:46.026Z,843.00
2019-04-29T10:45:47.683Z,842.00
2019-04-29T10:46:48.303Z,842.00
2019-04-29T10:47:48.521Z,842.00
2019-04-29T10:48:49.415Z,843.00
2019-04-29T10:49:50.036Z,845.00
2019-04-29T10:50:52.000Z,842.00
2019-04-29T10:51:50.366Z,841.00
2019-04-29T10:52:51.874Z,840.00
2019-04-29T10:53:52.681Z,842.00
2019-04-29T10:54:55.453Z,841.00
2019-04-29T10:55:52.670Z,842.00
2019-04-29T10:56:54.527Z,842.00
2019-04-29T10:57:55.247Z,841.00
2019-04-29T10:58:56.030Z,841.00
2019-04-29T10:59:56.513Z,842.00
2019-04-29T11:00:57.249Z,842.00
2019-04-29T11:02:01.347Z,841.00
2019-04-29T11:02:56.783Z,840.00
2019-04-29T11:04:00.684Z,840.00
2019-04-29T11:04:58.261Z,840.00
2019-04-29T11:06:01.741Z,841.00
2019-04-29T11:06:59.404Z,841.00
2019-04-29T11:08:02.483Z,840.00
2019-04-29T11:09:00.670Z,838.00
2019-04-29T11:10:02.521Z,840.00
2019-04-29T11:11:03.243Z,841.00
2019-04-29T11:12:03.824Z,840.00
2019-04-29T11:13:04.406Z,838.00
2019-04-29T11:14:05.262Z,836.00
2019-04-29T11:15:05.732Z,835.00
2019-04-29T11:16:06.236Z,836.00
2019-04-29T11:17:15.828Z,836.00
2019-04-29T11:18:06.650Z,838.00
2019-04-29T11:19:07.495Z,840.00
2019-04-29T11:20:11.160Z,840.00
2019-04-29T11:21:09.071Z,841.00
2019-04-29T11:22:09.205Z,841.00
2019-04-29T11:23:16.430Z,841.00
2019-04-29T11:24:10.395Z,840.00
2019-04-29T11:25:12.088Z,838.00
2019-04-29T11:26:12.979Z,838.00
2019-04-29T11:27:13.586Z,836.00
2019-04-29T11:28:16.177Z,829.00
2019-04-29T11:29:14.271Z,836.00
2019-04-29T11:30:15.777Z,836.00
2019-04-29T11:31:19.061Z,829.00
2019-04-29T11:32:15.789Z,835.00
2019-04-29T11:33:17.393Z,835.00
2019-04-29T11:34:18.179Z,831.00
2019-04-29T11:35:17.559Z,835.00
2019-04-29T11:36:19.036Z,838.00
2019-04-29T11:37:19.646Z,840.00
2019-04-29T11:38:19.524Z,843.00
2019-04-29T11:39:21.019Z,845.00
2019-04-29T11:39:30.559Z,846.00
2019-04-29T11:40:43.030Z,846.00
2019-04-29T11:41:31.623Z,845.00
2019-04-29T11:42:36.426Z,843.00
2019-04-29T11:43:32.924Z,843.00
2019-04-29T11:44:34.779Z,842.00
2019-04-29T11:45:38.473Z,841.00
2019-04-29T11:46:34.986Z,841.00
2019-04-29T11:47:36.454Z,841.00
2019-04-29T11:48:37.196Z,841.00
2019-04-29T11:49:37.920Z,840.00
2019-04-29T11:50:38.359Z,841.00
2019-04-29T11:51:55.745Z,841.00
2019-04-29T11:52:38.568Z,841.00
2019-04-29T11:53:40.138Z,841.00
2019-04-29T11:54:41.009Z,831.00
2019-04-29T11:55:44.609Z,840.00
2019-04-29T11:56:41.432Z,841.00
2019-04-29T11:57:41.805Z,842.00
2019-04-29T11:58:43.290Z,842.00
2019-04-29T11:59:43.837Z,843.00
2019-04-29T12:00:44.545Z,842.00
2019-04-29T12:01:50.851Z,841.00
2019-04-29T12:02:46.138Z,841.00
2019-04-29T12:03:45.295Z,841.00
2019-04-29T12:04:47.169Z,841.00
2019-04-29T12:05:47.865Z,840.00
2019-04-29T12:06:51.137Z,840.00
2019-04-29T12:07:47.930Z,840.00
2019-04-29T12:08:53.079Z,841.00
2019-04-29T12:09:48.475Z,841.00
2019-04-29T12:11:05.942Z,834.00
2019-04-29T12:11:49.727Z,833.00
2019-04-29T12:12:51.282Z,838.00
2019-04-29T12:13:50.906Z,838.00
2019-04-29T12:14:51.357Z,840.00
2019-04-29T12:15:52.522Z,841.00
2019-04-29T12:16:54.889Z,841.00
2019-04-29T12:17:52.983Z,840.00
2019-04-29T12:18:54.526Z,841.00
2019-04-29T12:19:55.266Z,840.00
2019-04-29T12:20:55.952Z,836.00
2019-04-29T12:21:56.463Z,840.00
2019-04-29T12:22:56.917Z,841.00
2019-04-29T12:23:57.403Z,838.00
2019-04-29T12:24:57.878Z,836.00
2019-04-29T12:26:02.509Z,836.00
2019-04-29T12:26:58.191Z,842.00